sensor_id;sensor_type;location;lat;lon;timestamp;pressure;altitude;pressure_sealevel;temperature;humidity
17311;BME280;8773;43.300;0.394;2024-02-23T00:00:00;98948.97;;;7.39;97.46
17311;BME280;8773;43.300;0.394;2024-02-23T00:02:27;98956.94;;;7.39;98.44
17311;BME280;8773;43.300;0.394;2024-02-23T00:04:55;98961.19;;;7.32;99.04
17311;BME280;8773;43.300;0.394;2024-02-23T00:07:23;98959.03;;;7.00;100.00
17311;BME280;8773;43.300;0.394;2024-02-23T00:09:51;98971.56;;;7.07;100.00
17311;BME280;8773;43.300;0.394;2024-02-23T00:12:18;98995.31;;;7.26;99.08
17311;BME280;8773;43.300;0.394;2024-02-23T00:14:46;98996.00;;;7.28;100.00
17311;BME280;8773;43.300;0.394;2024-02-23T00:17:13;99003.50;;;7.15;100.00
17311;BME280;8773;43.300;0.394;2024-02-23T00:19:40;99014.06;;;6.97;100.00
17311;BME280;8773;43.300;0.394;2024-02-23T00:22:08;99004.53;;;6.87;100.00
17311;BME280;8773;43.300;0.394;2024-02-23T00:24:36;98993.31;;;6.93;100.00
17311;BME280;8773;43.300;0.394;2024-02-23T00:27:04;98981.41;;;6.97;100.00
17311;BME280;8773;43.300;0.394;2024-02-23T00:29:31;98960.25;;;7.05;100.00
17311;BME280;8773;43.300;0.394;2024-02-23T00:31:59;98967.25;;;7.24;100.00
17311;BME280;8773;43.300;0.394;2024-02-23T00:34:26;98955.34;;;7.28;100.00
17311;BME280;8773;43.300;0.394;2024-02-23T00:36:54;98961.19;;;7.32;100.00
17311;BME280;8773;43.300;0.394;2024-02-23T00:39:21;98960.03;;;7.34;100.00
17311;BME280;8773;43.300;0.394;2024-02-23T00:41:50;98960.25;;;7.41;100.00
17311;BME280;8773;43.300;0.394;2024-02-23T00:44:17;98962.44;;;7.45;100.00
17311;BME280;8773;43.300;0.394;2024-02-23T00:46:44;98965.50;;;7.15;100.00
17311;BME280;8773;43.300;0.394;2024-02-23T00:49:12;98961.78;;;7.08;100.00
17311;BME280;8773;43.300;0.394;2024-02-23T00:51:39;98953.22;;;7.14;100.00
17311;BME280;8773;43.300;0.394;2024-02-23T00:54:07;98939.66;;;7.17;100.00
17311;BME280;8773;43.300;0.394;2024-02-23T00:56:34;98941.25;;;7.10;100.00
17311;BME280;8773;43.300;0.394;2024-02-23T00:59:18;98938.31;;;6.95;100.00
17311;BME280;8773;43.300;0.394;2024-02-23T01:01:45;98937.91;;;6.90;100.00
17311;BME280;8773;43.300;0.394;2024-02-23T01:04:13;98933.22;;;6.84;100.00
17311;BME280;8773;43.300;0.394;2024-02-23T01:06:40;98912.06;;;6.74;100.00
17311;BME280;8773;43.300;0.394;2024-02-23T01:09:07;98913.94;;;6.64;100.00
17311;BME280;8773;43.300;0.394;2024-02-23T01:11:35;98918.41;;;6.63;100.00
17311;BME280;8773;43.300;0.394;2024-02-23T01:14:02;98931.50;;;6.65;100.00
17311;BME280;8773;43.300;0.394;2024-02-23T01:16:31;98936.38;;;6.60;100.00
17311;BME280;8773;43.300;0.394;2024-02-23T01:18:59;98926.91;;;6.57;100.00
17311;BME280;8773;43.300;0.394;2024-02-23T01:21:26;98933.75;;;6.60;100.00
17311;BME280;8773;43.300;0.394;2024-02-23T01:23:53;98936.16;;;6.53;100.00
17311;BME280;8773;43.300;0.394;2024-02-23T01:26:21;98934.00;;;6.39;100.00
17311;BME280;8773;43.300;0.394;2024-02-23T01:28:48;98933.56;;;6.44;100.00
17311;BME280;8773;43.300;0.394;2024-02-23T01:31:16;98931.84;;;6.52;100.00
17311;BME280;8773;43.300;0.394;2024-02-23T01:33:45;98917.00;;;6.59;100.00
17311;BME280;8773;43.300;0.394;2024-02-23T01:36:12;98920.34;;;6.61;100.00
17311;BME280;8773;43.300;0.394;2024-02-23T01:38:40;98923.19;;;6.78;100.00
17311;BME280;8773;43.300;0.394;2024-02-23T01:41:07;98918.13;;;6.84;100.00
17311;BME280;8773;43.300;0.394;2024-02-23T01:43:35;98929.13;;;6.89;100.00
17311;BME280;8773;43.300;0.394;2024-02-23T01:46:03;98927.75;;;6.85;100.00
17311;BME280;8773;43.300;0.394;2024-02-23T01:48:32;98930.72;;;6.82;100.00
17311;BME280;8773;43.300;0.394;2024-02-23T01:51:01;98944.78;;;7.01;100.00
17311;BME280;8773;43.300;0.394;2024-02-23T01:53:29;98959.53;;;6.95;100.00
17311;BME280;8773;43.300;0.394;2024-02-23T01:55:59;98978.53;;;6.90;100.00
17311;BME280;8773;43.300;0.394;2024-02-23T01:58:28;98967.50;;;6.68;100.00
17311;BME280;8773;43.300;0.394;2024-02-23T02:00:56;98957.53;;;6.52;100.00
17311;BME280;8773;43.300;0.394;2024-02-23T02:03:24;98951.41;;;6.51;100.00
17311;BME280;8773;43.300;0.394;2024-02-23T02:05:52;98944.63;;;6.39;100.00
17311;BME280;8773;43.300;0.394;2024-02-23T02:08:22;98928.19;;;6.53;100.00
17311;BME280;8773;43.300;0.394;2024-02-23T02:10:49;98904.44;;;6.61;100.00
17311;BME280;8773;43.300;0.394;2024-02-23T02:13:17;98902.22;;;6.57;100.00
17311;BME280;8773;43.300;0.394;2024-02-23T02:15:44;98890.69;;;6.30;100.00
17311;BME280;8773;43.300;0.394;2024-02-23T02:18:12;98900.72;;;6.27;100.00
17311;BME280;8773;43.300;0.394;2024-02-23T02:20:47;98889.25;;;6.36;100.00
17311;BME280;8773;43.300;0.394;2024-02-23T02:23:17;98884.63;;;6.11;100.00
17311;BME280;8773;43.300;0.394;2024-02-23T02:25:52;98885.19;;;6.14;100.00
17311;BME280;8773;43.300;0.394;2024-02-23T02:28:19;98870.31;;;6.31;100.00
17311;BME280;8773;43.300;0.394;2024-02-23T02:30:47;98868.34;;;6.33;100.00
17311;BME280;8773;43.300;0.394;2024-02-23T02:33:15;98851.56;;;6.42;100.00
17311;BME280;8773;43.300;0.394;2024-02-23T02:35:42;98850.44;;;6.62;100.00
17311;BME280;8773;43.300;0.394;2024-02-23T02:38:10;98849.16;;;6.67;100.00
17311;BME280;8773;43.300;0.394;2024-02-23T02:40:38;98832.13;;;6.69;100.00
17311;BME280;8773;43.300;0.394;2024-02-23T02:43:07;98820.81;;;6.49;100.00
17311;BME280;8773;43.300;0.394;2024-02-23T02:45:34;98816.16;;;6.16;100.00
17311;BME280;8773;43.300;0.394;2024-02-23T02:48:03;98817.31;;;6.31;100.00
17311;BME280;8773;43.300;0.394;2024-02-23T02:50:30;98802.00;;;6.25;100.00
17311;BME280;8773;43.300;0.394;2024-02-23T02:52:58;98798.81;;;6.21;100.00
17311;BME280;8773;43.300;0.394;2024-02-23T02:55:26;98793.22;;;5.79;100.00
17311;BME280;8773;43.300;0.394;2024-02-23T02:57:53;98790.28;;;5.82;100.00
17311;BME280;8773;43.300;0.394;2024-02-23T03:00:23;98791.66;;;5.86;100.00
17311;BME280;8773;43.300;0.394;2024-02-23T03:02:50;98781.25;;;5.75;100.00
17311;BME280;8773;43.300;0.394;2024-02-23T03:05:17;98775.56;;;5.70;100.00
17311;BME280;8773;43.300;0.394;2024-02-23T03:07:45;98769.25;;;5.53;100.00
17311;BME280;8773;43.300;0.394;2024-02-23T03:10:12;98761.59;;;5.78;100.00
17311;BME280;8773;43.300;0.394;2024-02-23T03:12:39;98759.63;;;5.80;100.00
17311;BME280;8773;43.300;0.394;2024-02-23T03:15:07;98762.66;;;5.85;100.00
17311;BME280;8773;43.300;0.394;2024-02-23T03:17:36;98749.28;;;5.86;100.00
17311;BME280;8773;43.300;0.394;2024-02-23T03:20:05;98743.50;;;5.73;100.00
17311;BME280;8773;43.300;0.394;2024-02-23T03:22:32;98739.72;;;5.58;100.00
17311;BME280;8773;43.300;0.394;2024-02-23T03:25:00;98730.69;;;5.51;100.00
17311;BME280;8773;43.300;0.394;2024-02-23T03:27:28;98728.47;;;5.46;100.00
17311;BME280;8773;43.300;0.394;2024-02-23T03:29:56;98723.91;;;5.39;100.00
17311;BME280;8773;43.300;0.394;2024-02-23T03:32:23;98726.28;;;5.42;100.00
17311;BME280;8773;43.300;0.394;2024-02-23T03:34:52;98730.13;;;5.75;100.00
17311;BME280;8773;43.300;0.394;2024-02-23T03:37:19;98725.63;;;6.03;100.00
17311;BME280;8773;43.300;0.394;2024-02-23T03:39:47;98719.88;;;6.25;100.00
17311;BME280;8773;43.300;0.394;2024-02-23T03:42:14;98717.91;;;6.27;100.00
17311;BME280;8773;43.300;0.394;2024-02-23T03:44:41;98719.25;;;6.31;100.00
17311;BME280;8773;43.300;0.394;2024-02-23T03:47:09;98712.44;;;6.46;100.00
17311;BME280;8773;43.300;0.394;2024-02-23T03:49:36;98704.19;;;6.49;100.00
17311;BME280;8773;43.300;0.394;2024-02-23T03:52:05;98705.50;;;6.53;100.00
17311;BME280;8773;43.300;0.394;2024-02-23T03:54:33;98690.78;;;6.51;96.26
17311;BME280;8773;43.300;0.394;2024-02-23T03:57:00;98690.97;;;6.57;94.35
17311;BME280;8773;43.300;0.394;2024-02-23T03:59:27;98684.75;;;6.67;96.62
17311;BME280;8773;43.300;0.394;2024-02-23T04:01:55;98684.03;;;6.82;94.75
17311;BME280;8773;43.300;0.394;2024-02-23T04:04:22;98678.94;;;6.89;92.30
17311;BME280;8773;43.300;0.394;2024-02-23T04:06:50;98674.63;;;6.88;89.06
17311;BME280;8773;43.300;0.394;2024-02-23T04:09:18;98671.97;;;6.88;88.37
17311;BME280;8773;43.300;0.394;2024-02-23T04:11:47;98673.34;;;6.92;85.69
17311;BME280;8773;43.300;0.394;2024-02-23T04:14:14;98667.34;;;6.90;81.96
17311;BME280;8773;43.300;0.394;2024-02-23T04:16:42;98670.91;;;7.07;82.90
17311;BME280;8773;43.300;0.394;2024-02-23T04:19:09;98659.66;;;7.13;81.86
17311;BME280;8773;43.300;0.394;2024-02-23T04:21:39;98667.25;;;7.08;82.20
17311;BME280;8773;43.300;0.394;2024-02-23T04:24:07;98681.66;;;7.05;82.31
17311;BME280;8773;43.300;0.394;2024-02-23T04:26:36;98674.31;;;6.91;88.62
17311;BME280;8773;43.300;0.394;2024-02-23T04:29:03;98675.97;;;6.92;91.05
17311;BME280;8773;43.300;0.394;2024-02-23T04:31:30;98676.31;;;6.89;92.22
17311;BME280;8773;43.300;0.394;2024-02-23T04:33:58;98679.38;;;6.76;94.04
17311;BME280;8773;43.300;0.394;2024-02-23T04:36:25;98677.84;;;6.74;95.96
17311;BME280;8773;43.300;0.394;2024-02-23T04:38:53;98676.50;;;6.70;98.54
17311;BME280;8773;43.300;0.394;2024-02-23T04:41:20;98677.47;;;6.69;99.64
17311;BME280;8773;43.300;0.394;2024-02-23T04:43:49;98680.03;;;6.60;100.00
17311;BME280;8773;43.300;0.394;2024-02-23T04:46:16;98690.66;;;6.60;100.00
17311;BME280;8773;43.300;0.394;2024-02-23T04:48:44;98681.72;;;6.61;100.00
17311;BME280;8773;43.300;0.394;2024-02-23T04:51:11;98688.28;;;6.49;100.00
17311;BME280;8773;43.300;0.394;2024-02-23T04:53:38;98674.88;;;6.51;100.00
17311;BME280;8773;43.300;0.394;2024-02-23T04:56:06;98683.31;;;6.54;100.00
17311;BME280;8773;43.300;0.394;2024-02-23T04:58:33;98678.50;;;6.50;100.00
17311;BME280;8773;43.300;0.394;2024-02-23T05:01:02;98680.25;;;6.41;100.00
17311;BME280;8773;43.300;0.394;2024-02-23T05:03:30;98677.22;;;6.36;100.00
17311;BME280;8773;43.300;0.394;2024-02-23T05:05:57;98665.91;;;6.08;100.00
17311;BME280;8773;43.300;0.394;2024-02-23T05:08:24;98667.50;;;6.01;100.00
17311;BME280;8773;43.300;0.394;2024-02-23T05:10:52;98672.94;;;6.17;100.00
17311;BME280;8773;43.300;0.394;2024-02-23T05:13:19;98669.28;;;6.36;100.00
17311;BME280;8773;43.300;0.394;2024-02-23T05:15:47;98672.47;;;6.40;100.00
17311;BME280;8773;43.300;0.394;2024-02-23T05:18:16;98684.81;;;6.31;100.00
17311;BME280;8773;43.300;0.394;2024-02-23T05:20:43;98694.66;;;6.39;100.00
17311;BME280;8773;43.300;0.394;2024-02-23T05:23:10;98703.50;;;6.29;100.00
17311;BME280;8773;43.300;0.394;2024-02-23T05:25:38;98700.09;;;6.37;100.00
17311;BME280;8773;43.300;0.394;2024-02-23T05:28:05;98695.25;;;6.50;100.00
17311;BME280;8773;43.300;0.394;2024-02-23T05:30:33;98691.25;;;6.54;100.00
17311;BME280;8773;43.300;0.394;2024-02-23T05:33:00;98677.75;;;6.40;100.00
17311;BME280;8773;43.300;0.394;2024-02-23T05:35:29;98666.94;;;6.33;100.00
17311;BME280;8773;43.300;0.394;2024-02-23T05:37:56;98672.31;;;6.41;100.00
17311;BME280;8773;43.300;0.394;2024-02-23T05:40:24;98673.03;;;6.08;100.00
17311;BME280;8773;43.300;0.394;2024-02-23T05:42:51;98676.09;;;6.21;100.00
17311;BME280;8773;43.300;0.394;2024-02-23T05:45:18;98673.28;;;6.40;100.00
17311;BME280;8773;43.300;0.394;2024-02-23T05:47:46;98685.31;;;6.52;100.00
17311;BME280;8773;43.300;0.394;2024-02-23T05:50:15;98700.69;;;6.49;100.00
17311;BME280;8773;43.300;0.394;2024-02-23T05:52:44;98705.31;;;6.47;100.00
17311;BME280;8773;43.300;0.394;2024-02-23T05:55:11;98686.75;;;6.47;100.00
17311;BME280;8773;43.300;0.394;2024-02-23T05:57:38;98685.25;;;6.44;100.00
17311;BME280;8773;43.300;0.394;2024-02-23T06:00:07;98681.03;;;6.59;100.00
17311;BME280;8773;43.300;0.394;2024-02-23T06:02:34;98666.41;;;6.55;100.00
17311;BME280;8773;43.300;0.394;2024-02-23T06:05:02;98670.44;;;6.59;100.00
17311;BME280;8773;43.300;0.394;2024-02-23T06:07:29;98660.22;;;6.64;100.00
17311;BME280;8773;43.300;0.394;2024-02-23T06:09:58;98661.06;;;6.65;100.00
17311;BME280;8773;43.300;0.394;2024-02-23T06:12:25;98664.09;;;6.52;100.00
17311;BME280;8773;43.300;0.394;2024-02-23T06:14:53;98677.97;;;6.46;100.00
17311;BME280;8773;43.300;0.394;2024-02-23T06:17:20;98660.78;;;6.07;100.00
17311;BME280;8773;43.300;0.394;2024-02-23T06:19:48;98658.38;;;6.21;100.00
17311;BME280;8773;43.300;0.394;2024-02-23T06:22:15;98649.75;;;6.19;100.00
17311;BME280;8773;43.300;0.394;2024-02-23T06:24:43;98645.75;;;6.15;100.00
17311;BME280;8773;43.300;0.394;2024-02-23T06:27:11;98641.44;;;6.14;100.00
17311;BME280;8773;43.300;0.394;2024-02-23T06:29:39;98645.19;;;6.04;100.00
17311;BME280;8773;43.300;0.394;2024-02-23T06:32:06;98646.06;;;6.12;100.00
17311;BME280;8773;43.300;0.394;2024-02-23T06:34:34;98642.94;;;6.17;100.00
17311;BME280;8773;43.300;0.394;2024-02-23T06:37:01;98651.19;;;6.14;100.00
17311;BME280;8773;43.300;0.394;2024-02-23T06:39:28;98641.34;;;6.24;100.00
17311;BME280;8773;43.300;0.394;2024-02-23T06:41:56;98651.88;;;6.34;100.00
17311;BME280;8773;43.300;0.394;2024-02-23T06:44:24;98646.88;;;6.30;100.00
17311;BME280;8773;43.300;0.394;2024-02-23T06:46:52;98650.88;;;6.35;100.00
17311;BME280;8773;43.300;0.394;2024-02-23T06:49:19;98647.56;;;6.32;100.00
17311;BME280;8773;43.300;0.394;2024-02-23T06:51:47;98659.28;;;6.30;100.00
17311;BME280;8773;43.300;0.394;2024-02-23T06:54:14;98652.97;;;6.05;100.00
17311;BME280;8773;43.300;0.394;2024-02-23T06:56:41;98650.84;;;6.09;100.00
17311;BME280;8773;43.300;0.394;2024-02-23T06:59:09;98647.53;;;5.89;100.00
17311;BME280;8773;43.300;0.394;2024-02-23T07:01:47;98661.31;;;5.92;100.00
17311;BME280;8773;43.300;0.394;2024-02-23T07:04:14;98657.34;;;5.79;100.00
17311;BME280;8773;43.300;0.394;2024-02-23T07:06:42;98655.97;;;5.75;100.00
17311;BME280;8773;43.300;0.394;2024-02-23T07:09:10;98671.06;;;5.92;100.00
17311;BME280;8773;43.300;0.394;2024-02-23T07:11:38;98668.94;;;5.95;100.00
17311;BME280;8773;43.300;0.394;2024-02-23T07:14:05;98669.00;;;6.21;100.00
17311;BME280;8773;43.300;0.394;2024-02-23T07:16:33;98678.81;;;6.47;100.00
17311;BME280;8773;43.300;0.394;2024-02-23T07:19:02;98680.88;;;6.35;100.00
17311;BME280;8773;43.300;0.394;2024-02-23T07:21:29;98679.78;;;6.46;100.00
17311;BME280;8773;43.300;0.394;2024-02-23T07:23:56;98690.66;;;6.60;100.00
17311;BME280;8773;43.300;0.394;2024-02-23T07:26:24;98685.25;;;6.88;100.00
17311;BME280;8773;43.300;0.394;2024-02-23T07:28:51;98695.06;;;6.70;100.00
17311;BME280;8773;43.300;0.394;2024-02-23T07:31:18;98692.66;;;7.10;100.00
17311;BME280;8773;43.300;0.394;2024-02-23T07:33:46;98711.00;;;7.29;100.00
17311;BME280;8773;43.300;0.394;2024-02-23T07:36:15;98719.06;;;7.20;100.00
17311;BME280;8773;43.300;0.394;2024-02-23T07:38:43;98718.91;;;6.87;95.94
17311;BME280;8773;43.300;0.394;2024-02-23T07:41:10;98700.19;;;6.27;100.00
17311;BME280;8773;43.300;0.394;2024-02-23T07:43:38;98700.00;;;6.64;100.00
17311;BME280;8773;43.300;0.394;2024-02-23T07:46:05;98703.88;;;7.04;100.00
17311;BME280;8773;43.300;0.394;2024-02-23T07:48:33;98699.38;;;7.30;97.28
17311;BME280;8773;43.300;0.394;2024-02-23T07:51:00;98708.72;;;7.43;93.32
17311;BME280;8773;43.300;0.394;2024-02-23T07:53:29;98703.78;;;7.56;94.67
17311;BME280;8773;43.300;0.394;2024-02-23T07:55:57;98711.00;;;7.72;92.25
17311;BME280;8773;43.300;0.394;2024-02-23T07:58:24;98713.19;;;7.92;92.48
17311;BME280;8773;43.300;0.394;2024-02-23T08:00:52;98714.88;;;8.02;91.66
17311;BME280;8773;43.300;0.394;2024-02-23T08:03:19;98708.06;;;7.99;91.71
17311;BME280;8773;43.300;0.394;2024-02-23T08:05:46;98706.22;;;8.00;91.50
17311;BME280;8773;43.300;0.394;2024-02-23T08:08:14;98714.03;;;8.01;87.43
17311;BME280;8773;43.300;0.394;2024-02-23T08:10:43;98727.97;;;7.95;86.53
17311;BME280;8773;43.300;0.394;2024-02-23T08:13:11;98720.66;;;7.97;84.79
17311;BME280;8773;43.300;0.394;2024-02-23T08:15:38;98723.84;;;8.01;83.03
17311;BME280;8773;43.300;0.394;2024-02-23T08:18:06;98712.72;;;8.13;81.61
17311;BME280;8773;43.300;0.394;2024-02-23T08:20:33;98721.03;;;8.10;77.87
17311;BME280;8773;43.300;0.394;2024-02-23T08:23:01;98727.19;;;8.19;76.54
17311;BME280;8773;43.300;0.394;2024-02-23T08:25:28;98720.22;;;8.34;76.62
17311;BME280;8773;43.300;0.394;2024-02-23T08:27:57;98725.88;;;8.23;75.60
17311;BME280;8773;43.300;0.394;2024-02-23T08:30:24;98727.41;;;8.58;73.00
17311;BME280;8773;43.300;0.394;2024-02-23T08:32:52;98719.38;;;8.42;69.65
17311;BME280;8773;43.300;0.394;2024-02-23T08:35:19;98712.94;;;8.52;68.16
17311;BME280;8773;43.300;0.394;2024-02-23T08:37:46;98721.22;;;8.90;68.35
17311;BME280;8773;43.300;0.394;2024-02-23T08:40:14;98726.53;;;8.90;65.70
17311;BME280;8773;43.300;0.394;2024-02-23T08:42:41;98721.75;;;8.61;65.64
17311;BME280;8773;43.300;0.394;2024-02-23T08:45:10;98720.25;;;8.50;65.77
17311;BME280;8773;43.300;0.394;2024-02-23T08:47:37;98725.19;;;8.37;65.65
17311;BME280;8773;43.300;0.394;2024-02-23T08:50:06;98721.06;;;8.43;68.07
17311;BME280;8773;43.300;0.394;2024-02-23T08:52:34;98725.03;;;8.39;66.72
17311;BME280;8773;43.300;0.394;2024-02-23T08:55:01;98726.22;;;8.44;65.63
17311;BME280;8773;43.300;0.394;2024-02-23T08:57:28;98720.94;;;8.52;67.58
17311;BME280;8773;43.300;0.394;2024-02-23T08:59:56;98725.59;;;8.58;69.84
17311;BME280;8773;43.300;0.394;2024-02-23T09:02:24;98724.22;;;8.46;68.23
17311;BME280;8773;43.300;0.394;2024-02-23T09:04:52;98725.88;;;8.47;69.63
17311;BME280;8773;43.300;0.394;2024-02-23T09:07:19;98721.88;;;8.35;65.92
17311;BME280;8773;43.300;0.394;2024-02-23T09:09:47;98715.09;;;8.24;64.59
17311;BME280;8773;43.300;0.394;2024-02-23T09:12:15;98714.56;;;8.37;65.84
17311;BME280;8773;43.300;0.394;2024-02-23T09:14:42;98717.56;;;8.26;66.76
17311;BME280;8773;43.300;0.394;2024-02-23T09:17:10;98721.88;;;8.43;65.29
17311;BME280;8773;43.300;0.394;2024-02-23T09:19:39;98720.09;;;8.60;65.63
17311;BME280;8773;43.300;0.394;2024-02-23T09:22:06;98721.44;;;8.64;64.12
17311;BME280;8773;43.300;0.394;2024-02-23T09:24:33;98716.06;;;8.72;62.53
17311;BME280;8773;43.300;0.394;2024-02-23T09:27:01;98711.22;;;9.00;63.26
17311;BME280;8773;43.300;0.394;2024-02-23T09:29:28;98720.47;;;9.20;61.61
17311;BME280;8773;43.300;0.394;2024-02-23T09:31:55;98714.72;;;9.01;60.13
17311;BME280;8773;43.300;0.394;2024-02-23T09:34:23;98721.47;;;9.27;60.64
17311;BME280;8773;43.300;0.394;2024-02-23T09:36:52;98720.38;;;9.53;61.51
17311;BME280;8773;43.300;0.394;2024-02-23T09:39:19;98721.84;;;9.94;57.94
17311;BME280;8773;43.300;0.394;2024-02-23T09:41:50;98727.00;;;10.27;55.37
17311;BME280;8773;43.300;0.394;2024-02-23T09:44:18;98724.91;;;10.06;53.65
17311;BME280;8773;43.300;0.394;2024-02-23T09:46:46;98732.31;;;10.27;54.74
17311;BME280;8773;43.300;0.394;2024-02-23T09:49:15;98727.28;;;10.32;55.66
17311;BME280;8773;43.300;0.394;2024-02-23T09:51:42;98710.13;;;10.49;53.21
17311;BME280;8773;43.300;0.394;2024-02-23T09:54:11;98718.66;;;10.45;54.33
17311;BME280;8773;43.300;0.394;2024-02-23T09:56:39;98710.94;;;10.73;53.34
17311;BME280;8773;43.300;0.394;2024-02-23T09:59:07;98719.63;;;10.52;52.50
17311;BME280;8773;43.300;0.394;2024-02-23T10:01:34;98712.22;;;10.62;52.47
17311;BME280;8773;43.300;0.394;2024-02-23T10:04:02;98711.44;;;10.76;52.49
17311;BME280;8773;43.300;0.394;2024-02-23T10:06:29;98728.03;;;10.63;52.25
17311;BME280;8773;43.300;0.394;2024-02-23T10:08:57;98716.81;;;10.31;52.76
17311;BME280;8773;43.300;0.394;2024-02-23T10:11:26;98737.75;;;10.03;53.10
17311;BME280;8773;43.300;0.394;2024-02-23T10:13:54;98737.53;;;9.89;52.84
17311;BME280;8773;43.300;0.394;2024-02-23T10:16:22;98746.06;;;9.77;54.53
17311;BME280;8773;43.300;0.394;2024-02-23T10:18:49;98759.03;;;9.49;57.58
17311;BME280;8773;43.300;0.394;2024-02-23T10:21:17;98769.56;;;9.26;61.48
17311;BME280;8773;43.300;0.394;2024-02-23T10:23:45;98769.75;;;9.16;62.80
17311;BME280;8773;43.300;0.394;2024-02-23T10:26:12;98763.63;;;9.08;64.01
17311;BME280;8773;43.300;0.394;2024-02-23T10:28:41;98755.16;;;8.96;65.86
17311;BME280;8773;43.300;0.394;2024-02-23T10:31:09;98750.50;;;8.98;65.79
17311;BME280;8773;43.300;0.394;2024-02-23T10:33:40;98750.44;;;9.14;67.45
17311;BME280;8773;43.300;0.394;2024-02-23T10:36:07;98746.06;;;9.38;62.40
17311;BME280;8773;43.300;0.394;2024-02-23T10:38:38;98746.63;;;9.64;63.25
17311;BME280;8773;43.300;0.394;2024-02-23T10:41:05;98765.59;;;9.69;63.27
17311;BME280;8773;43.300;0.394;2024-02-23T10:43:39;98769.59;;;9.65;63.22
17311;BME280;8773;43.300;0.394;2024-02-23T10:46:09;98774.94;;;8.93;69.43
17311;BME280;8773;43.300;0.394;2024-02-23T10:48:39;98801.72;;;8.59;76.18
17311;BME280;8773;43.300;0.394;2024-02-23T10:51:08;98813.75;;;8.29;77.63
17311;BME280;8773;43.300;0.394;2024-02-23T10:53:39;98803.94;;;8.14;82.79
17311;BME280;8773;43.300;0.394;2024-02-23T10:56:07;98794.59;;;8.02;85.16
17311;BME280;8773;43.300;0.394;2024-02-23T10:58:35;98794.69;;;8.42;85.84
17311;BME280;8773;43.300;0.394;2024-02-23T11:01:06;98799.38;;;8.73;83.07
17311;BME280;8773;43.300;0.394;2024-02-23T11:03:37;98803.06;;;8.88;83.31
17311;BME280;8773;43.300;0.394;2024-02-23T11:06:06;98809.88;;;8.99;82.64
17311;BME280;8773;43.300;0.394;2024-02-23T11:08:34;98814.69;;;8.79;81.96
17311;BME280;8773;43.300;0.394;2024-02-23T11:11:07;98828.31;;;8.51;82.68
17311;BME280;8773;43.300;0.394;2024-02-23T11:13:35;98809.88;;;8.66;83.60
17311;BME280;8773;43.300;0.394;2024-02-23T11:16:04;98806.53;;;9.05;81.50
17311;BME280;8773;43.300;0.394;2024-02-23T11:18:34;98808.19;;;8.81;81.83
17311;BME280;8773;43.300;0.394;2024-02-23T11:21:04;98829.00;;;8.86;81.98
17311;BME280;8773;43.300;0.394;2024-02-23T11:23:40;98842.97;;;8.96;86.66
17311;BME280;8773;43.300;0.394;2024-02-23T11:26:10;98837.31;;;8.91;80.29
17311;BME280;8773;43.300;0.394;2024-02-23T11:28:44;98859.97;;;8.37;86.16
17311;BME280;8773;43.300;0.394;2024-02-23T11:31:14;98852.25;;;8.09;92.00
17311;BME280;8773;43.300;0.394;2024-02-23T11:33:47;98839.25;;;7.98;91.14
17311;BME280;8773;43.300;0.394;2024-02-23T11:36:23;98825.72;;;7.83;92.31
17311;BME280;8773;43.300;0.394;2024-02-23T11:38:52;98805.28;;;8.18;91.65
17311;BME280;8773;43.300;0.394;2024-02-23T11:41:21;98785.75;;;8.51;88.02
17311;BME280;8773;43.300;0.394;2024-02-23T11:43:49;98784.75;;;8.60;86.82
17311;BME280;8773;43.300;0.394;2024-02-23T11:46:16;98783.94;;;8.92;84.78
17311;BME280;8773;43.300;0.394;2024-02-23T11:48:44;98771.44;;;8.93;82.50
17311;BME280;8773;43.300;0.394;2024-02-23T11:51:11;98778.56;;;9.17;80.79
17311;BME280;8773;43.300;0.394;2024-02-23T11:53:40;98768.19;;;9.38;78.93
17311;BME280;8773;43.300;0.394;2024-02-23T11:56:07;98757.59;;;9.69;75.39
17311;BME280;8773;43.300;0.394;2024-02-23T11:58:35;98749.44;;;10.10;76.04
17311;BME280;8773;43.300;0.394;2024-02-23T12:01:03;98743.22;;;9.86;72.16
17311;BME280;8773;43.300;0.394;2024-02-23T12:03:31;98733.47;;;10.33;73.54
17311;BME280;8773;43.300;0.394;2024-02-23T12:05:58;98730.78;;;10.55;70.50
17311;BME280;8773;43.300;0.394;2024-02-23T12:08:27;98725.22;;;10.42;72.30
17311;BME280;8773;43.300;0.394;2024-02-23T12:10:56;98715.28;;;10.51;68.56
17311;BME280;8773;43.300;0.394;2024-02-23T12:13:24;98710.66;;;10.68;66.99
17311;BME280;8773;43.300;0.394;2024-02-23T12:15:52;98709.69;;;10.83;66.46
17311;BME280;8773;43.300;0.394;2024-02-23T12:18:21;98695.34;;;10.99;62.79
17311;BME280;8773;43.300;0.394;2024-02-23T12:20:49;98697.53;;;11.40;64.46
17311;BME280;8773;43.300;0.394;2024-02-23T12:23:16;98681.44;;;11.33;61.63
17311;BME280;8773;43.300;0.394;2024-02-23T12:25:52;98668.91;;;11.48;62.36
17311;BME280;8773;43.300;0.394;2024-02-23T12:28:21;98663.66;;;11.91;59.19
17311;BME280;8773;43.300;0.394;2024-02-23T12:30:58;98671.53;;;12.14;60.22
17311;BME280;8773;43.300;0.394;2024-02-23T12:33:27;98651.97;;;12.13;58.65
17311;BME280;8773;43.300;0.394;2024-02-23T12:35:55;98661.66;;;11.78;55.23
17311;BME280;8773;43.300;0.394;2024-02-23T12:38:22;98656.44;;;11.70;55.00
17311;BME280;8773;43.300;0.394;2024-02-23T12:40:50;98643.53;;;11.95;56.40
17311;BME280;8773;43.300;0.394;2024-02-23T12:43:18;98635.25;;;11.69;55.41
17311;BME280;8773;43.300;0.394;2024-02-23T12:45:47;98629.31;;;11.73;54.76
17311;BME280;8773;43.300;0.394;2024-02-23T12:48:14;98642.50;;;11.75;53.78
17311;BME280;8773;43.300;0.394;2024-02-23T12:50:42;98632.25;;;11.78;53.89
17311;BME280;8773;43.300;0.394;2024-02-23T12:53:09;98639.53;;;11.84;53.11
17311;BME280;8773;43.300;0.394;2024-02-23T12:55:36;98630.78;;;11.76;50.82
17311;BME280;8773;43.300;0.394;2024-02-23T12:58:04;98632.78;;;11.67;51.67
17311;BME280;8773;43.300;0.394;2024-02-23T13:00:31;98628.81;;;11.63;50.91
17311;BME280;8773;43.300;0.394;2024-02-23T13:03:00;98628.91;;;11.40;51.15
17311;BME280;8773;43.300;0.394;2024-02-23T13:05:27;98638.44;;;11.13;51.18
17311;BME280;8773;43.300;0.394;2024-02-23T13:07:55;98652.88;;;10.89;53.16
17311;BME280;8773;43.300;0.394;2024-02-23T13:10:22;98666.00;;;10.61;53.74
17311;BME280;8773;43.300;0.394;2024-02-23T13:12:50;98679.34;;;10.24;59.31
17311;BME280;8773;43.300;0.394;2024-02-23T13:15:17;98719.88;;;9.10;88.39
17311;BME280;8773;43.300;0.394;2024-02-23T13:17:48;98733.09;;;7.80;100.00